Time;durP1;ratioP1;P1;durP2;ratioP2;P2;SDS_P1;SDS_P2;PMS_P1;PMS_P2;Temp;Humidity;BMP_temperature;BMP_pressure;BME280_temperature;BME280_humidity;BME280_pressure;Samples;Min_cycle;Max_cycle;Signal;HPM_P1;HPM_P2
2021/03/26 00:02:02;;;;;;;16.05;7.90;;;;;;;;;;5005253;28;20499;-83
2021/03/26 00:04:47;;;;;;;12.85;7.63;;;;;;;;;;5021506;28;20063;-83
2021/03/26 00:07:33;;;;;;;12.80;6.63;;;;;;;;;;5013605;28;20044;-83
2021/03/26 00:10:18;;;;;;;15.23;7.78;;;;;;;;;;5007267;28;20025;-84
2021/03/26 00:13:04;;;;;;;16.13;7.78;;;;;;;;;;5014420;28;20021;-83
2021/03/26 00:15:49;;;;;;;18.83;9.52;;;;;;;;;;5029052;28;20586;-82
2021/03/26 00:18:35;;;;;;;14.77;6.82;;;;;;;;;;5022790;28;20025;-84
2021/03/26 00:21:21;;;;;;;14.45;7.75;;;;;;;;;;5013175;28;20033;-82
2021/03/26 00:24:06;;;;;;;13.25;7.45;;;;;;;;;;5007632;28;20026;-83
2021/03/26 00:26:51;;;;;;;13.10;8.35;;;;;;;;;;5033217;28;20029;-84
2021/03/26 00:29:37;;;;;;;14.30;7.10;;;;;;;;;;5011397;28;20021;-84
2021/03/26 00:32:22;;;;;;;14.43;7.97;;;;;;;;;;5012761;28;20037;-85
2021/03/26 00:35:09;;;;;;;12.70;6.63;;;;;;;;;;5022795;28;20025;-84
2021/03/26 00:37:55;;;;;;;14.32;7.05;;;;;;;;;;5013642;28;20025;-83
2021/03/26 00:40:40;;;;;;;19.98;7.82;;;;;;;;;;5008450;28;20024;-83
2021/03/26 00:43:26;;;;;;;18.08;8.05;;;;;;;;;;5011164;28;20060;-82
2021/03/26 00:46:11;;;;;;;11.77;7.60;;;;;;;;;;5012582;28;20549;-82
2021/03/26 00:48:56;;;;;;;13.80;8.00;;;;;;;;;;5021520;28;20455;-82
2021/03/26 00:51:41;;;;;;;15.50;8.57;;;;;;;;;;5021724;28;20060;-84
2021/03/26 00:54:26;;;;;;;16.17;8.30;;;;;;;;;;5009659;28;20034;-82
2021/03/26 00:57:12;;;;;;;22.02;7.78;;;;;;;;;;5011362;28;20018;-85
2021/03/26 00:59:57;;;;;;;15.55;9.50;;;;;;;;;;5011103;28;20013;-82
2021/03/26 01:02:42;;;;;;;17.60;10.57;;;;;;;;;;5007424;28;20032;-82
2021/03/26 01:05:31;;;;;;;13.52;8.55;;;;;;;;;;5007160;28;20139;-83
2021/03/26 01:08:16;;;;;;;15.95;8.15;;;;;;;;;;5010547;28;20033;-82
2021/03/26 01:11:13;;;;;;;15.02;8.60;;;;;;;;;;5005107;28;20061;-84
2021/03/26 01:13:58;;;;;;;14.77;9.07;;;;;;;;;;5010422;28;20320;-82
2021/03/26 01:16:44;;;;;;;14.63;8.35;;;;;;;;;;5006259;28;20021;-81
2021/03/26 01:19:29;;;;;;;16.50;8.68;;;;;;;;;;5026168;28;20064;-81
2021/03/26 01:22:14;;;;;;;15.50;9.20;;;;;;;;;;5022226;28;20037;-81
2021/03/26 01:25:00;;;;;;;14.07;8.25;;;;;;;;;;5013144;28;20080;-82
2021/03/26 01:27:45;;;;;;;14.15;8.32;;;;;;;;;;5009629;28;20025;-83
2021/03/26 01:30:31;;;;;;;15.32;7.70;;;;;;;;;;5023711;28;20025;-84
2021/03/26 01:33:17;;;;;;;17.75;9.18;;;;;;;;;;5010992;28;20334;-82
2021/03/26 01:36:05;;;;;;;14.18;7.38;;;;;;;;;;5013437;28;20627;-82
2021/03/26 01:38:50;;;;;;;14.60;7.43;;;;;;;;;;5012830;28;20486;-82
2021/03/26 01:41:44;;;;;;;17.83;8.43;;;;;;;;;;5009477;28;20480;-81
2021/03/26 01:44:30;;;;;;;13.40;8.10;;;;;;;;;;5025222;28;20025;-82
2021/03/26 01:47:15;;;;;;;12.38;7.63;;;;;;;;;;5028276;28;20032;-81
2021/03/26 01:50:00;;;;;;;15.27;8.43;;;;;;;;;;5026157;28;20100;-82
2021/03/26 01:52:45;;;;;;;15.90;8.93;;;;;;;;;;5011281;28;20017;-83
2021/03/26 01:55:38;;;;;;;17.40;8.32;;;;;;;;;;5026017;28;20009;-81
2021/03/26 01:58:26;;;;;;;15.30;8.10;;;;;;;;;;5015859;28;20029;-81
2021/03/26 02:01:22;;;;;;;13.50;7.78;;;;;;;;;;5015196;28;20021;-83
2021/03/26 02:04:07;;;;;;;15.18;7.47;;;;;;;;;;5015358;28;20033;-81
2021/03/26 02:06:54;;;;;;;15.95;7.70;;;;;;;;;;5002318;28;20107;-83
2021/03/26 02:09:40;;;;;;;17.65;8.60;;;;;;;;;;5006996;28;20026;-81
2021/03/26 02:12:26;;;;;;;13.27;7.68;;;;;;;;;;4996140;28;20104;-81
2021/03/26 02:15:21;;;;;;;15.77;7.40;;;;;;;;;;5008540;28;20535;-81
2021/03/26 02:18:06;;;;;;;13.80;7.72;;;;;;;;;;5010817;28;20025;-83
2021/03/26 02:20:57;;;;;;;11.20;6.63;;;;;;;;;;5025394;28;20021;-83
2021/03/26 02:23:42;;;;;;;14.75;7.68;;;;;;;;;;5023312;28;20191;-81
2021/03/26 02:26:29;;;;;;;11.20;7.35;;;;;;;;;;5012643;28;20030;-82
2021/03/26 02:29:24;;;;;;;14.73;6.90;;;;;;;;;;5011332;28;20472;-84
2021/03/26 02:32:23;;;;;;;15.15;7.88;;;;;;;;;;5000807;28;20040;-82
2021/03/26 02:35:17;;;;;;;15.18;7.72;;;;;;;;;;5024303;28;20017;-82
2021/03/26 02:38:12;;;;;;;14.30;7.72;;;;;;;;;;5013603;28;20022;-83
2021/03/26 02:41:14;;;;;;;14.82;7.53;;;;;;;;;;5032505;28;20018;-83
2021/03/26 02:44:18;;;;;;;13.70;8.45;;;;;;;;;;5010835;28;20607;-83
2021/03/26 02:47:13;;;;;;;19.17;7.97;;;;;;;;;;4994639;28;20029;-83
2021/03/26 02:50:04;;;;;;;14.60;7.43;;;;;;;;;;5023780;28;20029;-82
2021/03/26 02:52:55;;;;;;;15.43;8.65;;;;;;;;;;4997464;28;20022;-83
2021/03/26 02:55:59;;;;;;;13.75;7.80;;;;;;;;;;5017684;28;20025;-82
2021/03/26 02:58:47;;;;;;;13.43;7.80;;;;;;;;;;5029973;28;20480;-83
2021/03/26 03:01:39;;;;;;;17.40;9.13;;;;;;;;;;5012754;28;20736;-83
2021/03/26 03:04:25;;;;;;;14.70;7.90;;;;;;;;;;5013784;28;20462;-82
2021/03/26 03:07:18;;;;;;;13.88;7.53;;;;;;;;;;5010352;28;20117;-82
2021/03/26 03:10:18;;;;;;;12.20;7.18;;;;;;;;;;5006359;28;20030;-82
2021/03/26 03:13:15;;;;;;;10.48;6.68;;;;;;;;;;5000479;28;20100;-82
2021/03/26 03:16:27;;;;;;;14.18;7.63;;;;;;;;;;5009564;28;20157;-81
2021/03/26 03:19:26;;;;;;;14.45;7.90;;;;;;;;;;5014257;28;20412;-82
2021/03/26 03:22:18;;;;;;;14.25;7.78;;;;;;;;;;5014387;28;20072;-82
2021/03/26 03:25:09;;;;;;;12.57;7.25;;;;;;;;;;5019153;28;20112;-81
2021/03/26 03:28:27;;;;;;;11.82;6.82;;;;;;;;;;5014427;28;20075;-81
2021/03/26 03:31:18;;;;;;;14.30;6.80;;;;;;;;;;4984715;28;20512;-82
2021/03/26 03:34:13;;;;;;;12.75;7.60;;;;;;;;;;5008950;28;20040;-80
2021/03/26 03:37:11;;;;;;;16.52;7.47;;;;;;;;;;5009711;28;20018;-82
2021/03/26 03:40:00;;;;;;;14.00;7.45;;;;;;;;;;5009923;28;20152;-83
2021/03/26 03:42:55;;;;;;;12.75;6.22;;;;;;;;;;5000965;28;20044;-82
2021/03/26 03:45:59;;;;;;;10.63;7.15;;;;;;;;;;5011618;28;20029;-83
2021/03/26 03:48:50;;;;;;;14.27;6.68;;;;;;;;;;5009055;28;20029;-83
2021/03/26 03:51:38;;;;;;;15.20;8.90;;;;;;;;;;5011633;28;20147;-82
2021/03/26 03:54:23;;;;;;;13.30;7.78;;;;;;;;;;5012878;28;20033;-82
2021/03/26 03:57:11;;;;;;;17.58;7.57;;;;;;;;;;5010931;28;20069;-82
2021/03/26 03:59:59;;;;;;;14.52;8.27;;;;;;;;;;5013577;28;20488;-83
2021/03/26 04:02:54;;;;;;;13.52;7.40;;;;;;;;;;5031847;28;20439;-82
2021/03/26 04:06:06;;;;;;;14.05;7.88;;;;;;;;;;5016515;28;20045;-83
2021/03/26 04:08:57;;;;;;;13.18;8.10;;;;;;;;;;4992879;28;20065;-82
2021/03/26 04:11:42;;;;;;;14.52;7.57;;;;;;;;;;5015130;28;20361;-80
2021/03/26 04:14:54;;;;;;;15.25;7.75;;;;;;;;;;5009384;28;20496;-85
2021/03/26 04:18:12;;;;;;;14.02;7.47;;;;;;;;;;4990433;28;20095;-84
2021/03/26 04:20:57;;;;;;;11.70;7.25;;;;;;;;;;4965771;28;20042;-82
2021/03/26 04:23:47;;;;;;;14.30;7.97;;;;;;;;;;5017360;28;20052;-82
2021/03/26 04:26:36;;;;;;;11.48;7.40;;;;;;;;;;5022039;28;20029;-83
2021/03/26 04:29:25;;;;;;;16.75;8.43;;;;;;;;;;5007424;28;20041;-82
2021/03/26 04:32:12;;;;;;;15.27;8.37;;;;;;;;;;5013351;28;20017;-83
2021/03/26 04:34:58;;;;;;;17.40;9.57;;;;;;;;;;5028084;28;20272;-83
2021/03/26 04:37:49;;;;;;;17.65;8.73;;;;;;;;;;5030271;28;20175;-83
2021/03/26 04:40:36;;;;;;;13.43;7.80;;;;;;;;;;5026387;28;20032;-83
2021/03/26 04:43:41;;;;;;;18.50;9.10;;;;;;;;;;4999512;28;20035;-82
2021/03/26 04:46:29;;;;;;;14.77;7.93;;;;;;;;;;5015790;28;20030;-82
2021/03/26 04:49:18;;;;;;;14.93;7.88;;;;;;;;;;5013092;28;20032;-83
2021/03/26 04:52:03;;;;;;;13.07;8.38;;;;;;;;;;5022695;28;20022;-82
2021/03/26 04:55:07;;;;;;;16.13;8.20;;;;;;;;;;5026402;28;20040;-82
2021/03/26 04:57:55;;;;;;;14.55;8.23;;;;;;;;;;5028384;28;20034;-82
2021/03/26 05:00:48;;;;;;;18.05;8.13;;;;;;;;;;5021058;28;20435;-82
2021/03/26 05:03:35;;;;;;;15.52;8.48;;;;;;;;;;5012700;28;20021;-82
2021/03/26 05:06:22;;;;;;;14.07;8.52;;;;;;;;;;5010891;28;20053;-82
2021/03/26 05:09:13;;;;;;;16.85;8.43;;;;;;;;;;5028634;28;20032;-82
2021/03/26 05:12:01;;;;;;;16.58;8.63;;;;;;;;;;4994278;28;20025;-83
2021/03/26 05:14:52;;;;;;;13.63;8.63;;;;;;;;;;4998894;28;20033;-83
2021/03/26 05:17:52;;;;;;;15.32;7.85;;;;;;;;;;5007710;28;20029;-84
2021/03/26 05:20:48;;;;;;;15.18;8.65;;;;;;;;;;5023202;28;20507;-84
2021/03/26 05:23:42;;;;;;;13.07;7.95;;;;;;;;;;5010982;28;20382;-82
2021/03/26 05:26:28;;;;;;;15.77;9.07;;;;;;;;;;5016133;28;20044;-84
2021/03/26 05:29:13;;;;;;;13.43;8.48;;;;;;;;;;5010648;28;20025;-83
2021/03/26 05:32:09;;;;;;;17.85;8.80;;;;;;;;;;5009503;28;20443;-82
2021/03/26 05:34:58;;;;;;;15.00;9.02;;;;;;;;;;5018466;28;20033;-82
2021/03/26 05:37:52;;;;;;;17.25;9.55;;;;;;;;;;5004868;28;20018;-84
2021/03/26 05:40:40;;;;;;;13.85;9.85;;;;;;;;;;5006759;28;20068;-82
2021/03/26 05:43:44;;;;;;;13.98;9.02;;;;;;;;;;4998778;28;20421;-82
2021/03/26 05:46:50;;;;;;;15.57;8.77;;;;;;;;;;5007079;28;20435;-82
2021/03/26 05:49:54;;;;;;;17.50;8.05;;;;;;;;;;5003718;28;20029;-85
2021/03/26 05:52:57;;;;;;;14.45;8.98;;;;;;;;;;5009842;28;20041;-81
2021/03/26 05:56:01;;;;;;;13.52;9.07;;;;;;;;;;5021648;28;20031;-81
2021/03/26 05:58:49;;;;;;;16.20;9.25;;;;;;;;;;5010006;28;20033;-80
2021/03/26 06:01:38;;;;;;;17.08;8.57;;;;;;;;;;5021913;28;20431;-80
2021/03/26 06:04:38;;;;;;;20.13;9.10;;;;;;;;;;5014846;28;20033;-81
2021/03/26 06:07:42;;;;;;;17.55;8.10;;;;;;;;;;4996141;28;20025;-82
2021/03/26 06:10:46;;;;;;;23.98;9.82;;;;;;;;;;5015822;28;20021;-82
2021/03/26 06:13:31;;;;;;;15.80;10.05;;;;;;;;;;5010183;28;20036;-83
2021/03/26 06:16:24;;;;;;;16.55;10.00;;;;;;;;;;5022694;28;20013;-82
2021/03/26 06:19:28;;;;;;;21.73;9.90;;;;;;;;;;5009771;28;20036;-81
2021/03/26 06:22:16;;;;;;;14.75;9.48;;;;;;;;;;5022995;28;20361;-85
2021/03/26 06:25:22;;;;;;;17.73;9.90;;;;;;;;;;5025525;28;20464;-86
2021/03/26 06:28:27;;;;;;;16.00;10.35;;;;;;;;;;5015425;28;20496;-86
2021/03/26 06:31:24;;;;;;;16.83;10.30;;;;;;;;;;5025292;28;20427;-87
2021/03/26 06:34:22;;;;;;;17.40;9.40;;;;;;;;;;5033337;28;20020;-85
2021/03/26 06:37:20;;;;;;;23.55;10.15;;;;;;;;;;5020807;28;20098;-83
2021/03/26 06:40:20;;;;;;;20.92;10.50;;;;;;;;;;5027362;28;20464;-83
2021/03/26 06:43:24;;;;;;;18.50;10.02;;;;;;;;;;5026212;28;20076;-86
2021/03/26 06:46:24;;;;;;;18.02;10.45;;;;;;;;;;5036872;28;20021;-85
2021/03/26 06:49:09;;;;;;;18.33;10.80;;;;;;;;;;5025628;28;20028;-84
2021/03/26 06:51:54;;;;;;;21.35;10.65;;;;;;;;;;5032674;28;20029;-87
2021/03/26 06:54:59;;;;;;;21.08;12.00;;;;;;;;;;5020473;28;20029;-85
2021/03/26 06:57:53;;;;;;;22.25;11.27;;;;;;;;;;5040861;28;20683;-85
2021/03/26 07:00:49;;;;;;;19.50;12.75;;;;;;;;;;5027709;28;20024;-83
2021/03/26 07:03:34;;;;;;;17.33;11.00;;;;;;;;;;5018977;28;20526;-83
2021/03/26 07:06:19;;;;;;;23.08;13.32;;;;;;;;;;5009048;28;20120;-83
2021/03/26 07:09:11;;;;;;;18.50;11.50;;;;;;;;;;5006286;28;20024;-84
2021/03/26 07:12:06;;;;;;;26.77;11.57;;;;;;;;;;5007243;28;20404;-84
2021/03/26 07:15:07;;;;;;;20.10;12.25;;;;;;;;;;5003805;28;20357;-83
2021/03/26 07:17:52;;;;;;;34.55;26.70;;;;;;;;;;5014598;28;20041;-83
2021/03/26 07:20:55;;;;;;;48.17;31.40;;;;;;;;;;4996274;28;20120;-83
2021/03/26 07:23:57;;;;;;;27.52;13.88;;;;;;;;;;5006980;28;20014;-83
2021/03/26 07:26:48;;;;;;;21.17;11.43;;;;;;;;;;5021959;28;20032;-83
2021/03/26 07:29:57;;;;;;;17.27;10.65;;;;;;;;;;5018174;28;20026;-82
2021/03/26 07:32:45;;;;;;;18.20;11.60;;;;;;;;;;4998630;28;20037;-82
2021/03/26 07:36:03;;;;;;;17.15;11.88;;;;;;;;;;5005718;28;20079;-83
2021/03/26 07:39:07;;;;;;;17.42;12.43;;;;;;;;;;4972193;28;20044;-84
2021/03/26 07:42:05;;;;;;;17.67;11.55;;;;;;;;;;5020435;28;20309;-85
2021/03/26 07:44:59;;;;;;;21.60;11.73;;;;;;;;;;5005627;28;20488;-84
2021/03/26 07:47:57;;;;;;;17.75;11.43;;;;;;;;;;5001811;28;20029;-84
2021/03/26 07:51:00;;;;;;;24.13;10.07;;;;;;;;;;5005393;28;20726;-84
2021/03/26 07:53:55;;;;;;;13.63;9.18;;;;;;;;;;5000305;28;20046;-84
2021/03/26 07:56:41;;;;;;;15.70;9.52;;;;;;;;;;5002805;28;20029;-85
2021/03/26 07:59:35;;;;;;;18.13;9.77;;;;;;;;;;5007194;28;20022;-85
2021/03/26 08:02:40;;;;;;;16.63;9.43;;;;;;;;;;5002267;28;20021;-84
2021/03/26 08:05:42;;;;;;;15.63;9.48;;;;;;;;;;5003092;28;20119;-85
2021/03/26 08:08:46;;;;;;;17.27;9.10;;;;;;;;;;5001587;28;20044;-86
2021/03/26 08:11:52;;;;;;;19.02;9.02;;;;;;;;;;5013382;28;20009;-84
2021/03/26 08:14:51;;;;;;;15.13;8.50;;;;;;;;;;5019903;28;20021;-84
2021/03/26 08:17:37;;;;;;;16.88;9.32;;;;;;;;;;5003668;28;20041;-85
2021/03/26 08:20:31;;;;;;;12.77;9.25;;;;;;;;;;5003435;28;20093;-84
2021/03/26 08:23:25;;;;;;;17.50;8.38;;;;;;;;;;4995602;28;20088;-83
2021/03/26 08:26:10;;;;;;;53.88;38.28;;;;;;;;;;5007722;28;20127;-85
2021/03/26 08:28:58;;;;;;;20.77;13.82;;;;;;;;;;5005116;28;20028;-84
2021/03/26 08:31:50;;;;;;;14.48;9.00;;;;;;;;;;5000002;28;20484;-85
2021/03/26 08:34:54;;;;;;;11.52;7.57;;;;;;;;;;5013888;28;20499;-84
2021/03/26 08:37:42;;;;;;;11.18;7.85;;;;;;;;;;5002350;28;20108;-85
2021/03/26 08:40:46;;;;;;;15.00;8.88;;;;;;;;;;5019518;28;20025;-84
2021/03/26 08:43:33;;;;;;;12.80;8.00;;;;;;;;;;4993394;28;20383;-84
2021/03/26 08:46:21;;;;;;;13.63;7.35;;;;;;;;;;5007181;28;20095;-87
2021/03/26 08:49:22;;;;;;;22.30;9.02;;;;;;;;;;5006461;28;20025;-84
2021/03/26 08:52:19;;;;;;;13.13;8.18;;;;;;;;;;5006907;28;20041;-84
2021/03/26 08:55:17;;;;;;;11.77;8.93;;;;;;;;;;5000078;28;20048;-85
2021/03/26 08:58:05;;;;;;;14.95;8.68;;;;;;;;;;5011771;28;20395;-84
2021/03/26 09:00:53;;;;;;;15.97;9.33;;;;;;;;;;5006963;28;20033;-85
2021/03/26 09:03:57;;;;;;;13.00;8.60;;;;;;;;;;5009434;28;20033;-84
2021/03/26 09:07:00;;;;;;;13.63;10.10;;;;;;;;;;4988067;28;20392;-83
2021/03/26 09:10:01;;;;;;;18.17;10.13;;;;;;;;;;5009184;28;20484;-85
2021/03/26 09:12:46;;;;;;;17.15;10.27;;;;;;;;;;4999574;28;20026;-85
2021/03/26 09:15:46;;;;;;;16.40;9.88;;;;;;;;;;4997015;28;20322;-83
2021/03/26 09:18:49;;;;;;;23.50;17.13;;;;;;;;;;4994628;28;20530;-84
2021/03/26 09:21:40;;;;;;;16.85;11.40;;;;;;;;;;5019197;28;20021;-85
2021/03/26 09:24:28;;;;;;;13.60;10.05;;;;;;;;;;5004831;28;20495;-85
2021/03/26 09:27:17;;;;;;;13.60;9.50;;;;;;;;;;5006718;28;20112;-84
2021/03/26 09:30:41;;;;;;;16.13;9.77;;;;;;;;;;5017849;28;20491;-86
2021/03/26 09:33:26;;;;;;;14.43;9.65;;;;;;;;;;4944477;28;20027;-83
2021/03/26 09:36:17;;;;;;;14.68;9.27;;;;;;;;;;4940492;28;20029;-84
2021/03/26 09:39:07;;;;;;;13.93;9.65;;;;;;;;;;4999720;28;20025;-84
2021/03/26 09:41:58;;;;;;;36.88;27.00;;;;;;;;;;5008597;28;20029;-86
2021/03/26 09:44:46;;;;;;;13.90;10.15;;;;;;;;;;5024877;28;20112;-86
2021/03/26 09:47:35;;;;;;;16.98;9.40;;;;;;;;;;5002090;28;20095;-83
2021/03/26 09:50:20;;;;;;;;;;;;;;;;;;5005241;28;20700;-83
2021/03/26 09:53:08;;;;;;;15.55;9.57;;;;;;;;;;5016053;28;19940;-85
2021/03/26 09:59:26;;;;;;;17.13;9.93;;;;;;;;;;5004922;28;20029;-86
2021/03/26 10:02:21;;;;;;;16.75;9.25;;;;;;;;;;5017088;28;20675;-82
2021/03/26 10:05:13;;;;;;;15.27;9.05;;;;;;;;;;5007650;28;20042;-86
2021/03/26 10:09:05;;;;;;;12.77;8.80;;;;;;;;;;5013195;28;20523;-84
2021/03/26 10:11:36;;;;;;;13.93;9.00;;;;;;;;;;4999128;28;20034;-85
2021/03/26 10:14:23;;;;;;;15.45;8.57;;;;;;;;;;5008298;28;20053;-84
2021/03/26 10:17:27;;;;;;;14.57;8.85;;;;;;;;;;5017350;28;20026;-84
2021/03/26 10:20:25;;;;;;;13.60;8.68;;;;;;;;;;5003242;28;20045;-84
2021/03/26 10:23:29;;;;;;;13.50;8.38;;;;;;;;;;4998708;28;20021;-84
2021/03/26 10:26:24;;;;;;;14.07;9.60;;;;;;;;;;5020684;28;20041;-88
2021/03/26 10:29:15;;;;;;;14.55;8.13;;;;;;;;;;5015835;28;20135;-84
2021/03/26 10:32:09;;;;;;;11.23;7.85;;;;;;;;;;5021052;28;20345;-83
2021/03/26 10:34:56;;;;;;;13.88;7.97;;;;;;;;;;5011372;28;20052;-83
2021/03/26 10:37:45;;;;;;;12.82;8.02;;;;;;;;;;5017007;28;20083;-85
2021/03/26 10:40:43;;;;;;;12.60;7.47;;;;;;;;;;4999756;28;20108;-82
2021/03/26 10:43:46;;;;;;;10.48;7.20;;;;;;;;;;5015429;28;20021;-81
2021/03/26 10:46:43;;;;;;;12.93;7.43;;;;;;;;;;5007004;28;20075;-86
2021/03/26 10:49:37;;;;;;;16.75;8.73;;;;;;;;;;5000903;28;20049;-83
2021/03/26 10:52:31;;;;;;;9.18;6.35;;;;;;;;;;5001175;28;20033;-83
2021/03/26 10:55:18;;;;;;;10.32;6.90;;;;;;;;;;5018219;28;20029;-83
2021/03/26 10:58:27;;;;;;;9.48;5.50;;;;;;;;;;5010333;28;20013;-82
2021/03/26 11:01:16;;;;;;;10.55;5.82;;;;;;;;;;5007141;28;20030;-83
2021/03/26 11:04:22;;;;;;;11.23;6.20;;;;;;;;;;5016192;28;20069;-83
2021/03/26 11:07:11;;;;;;;12.20;6.32;;;;;;;;;;5027057;28;20046;-83
2021/03/26 11:10:00;;;;;;;8.65;5.55;;;;;;;;;;5024500;28;20026;-83
2021/03/26 11:12:49;;;;;;;8.57;5.25;;;;;;;;;;5017013;28;20084;-87
2021/03/26 11:15:34;;;;;;;;;;;;;;;;;;5003773;28;20028;-87
2021/03/26 11:18:38;;;;;;;11.65;5.13;;;;;;;;;;5007834;28;19917;-86
2021/03/26 11:21:24;;;;;;;8.73;5.10;;;;;;;;;;5001051;28;20028;-84
2021/03/26 11:24:10;;;;;;;10.10;4.68;;;;;;;;;;4999379;28;20030;-84
2021/03/26 11:27:01;;;;;;;9.15;5.63;;;;;;;;;;5006636;28;20164;-87
2021/03/26 11:30:06;;;;;;;7.80;4.68;;;;;;;;;;5024448;28;20030;-83
2021/03/26 11:32:55;;;;;;;9.75;5.30;;;;;;;;;;5013118;28;20075;-84
2021/03/26 11:35:41;;;;;;;9.52;5.10;;;;;;;;;;5011614;28;20072;-84
2021/03/26 11:38:28;;;;;;;10.57;5.07;;;;;;;;;;5021698;28;20356;-85
2021/03/26 11:41:15;;;;;;;9.15;5.35;;;;;;;;;;5025531;28;20761;-86
2021/03/26 11:44:02;;;;;;;9.63;6.50;;;;;;;;;;5031837;28;20026;-85
2021/03/26 11:46:54;;;;;;;9.70;5.30;;;;;;;;;;5020244;28;20050;-86
2021/03/26 11:49:46;;;;;;;12.57;6.63;;;;;;;;;;4994759;28;20030;-86
2021/03/26 11:52:38;;;;;;;12.70;6.55;;;;;;;;;;5008083;28;20116;-85
2021/03/26 11:55:29;;;;;;;10.82;6.68;;;;;;;;;;5007616;28;20372;-85
2021/03/26 11:58:19;;;;;;;10.35;6.00;;;;;;;;;;5004789;28;20018;-85
2021/03/26 12:01:13;;;;;;;10.82;5.53;;;;;;;;;;5009410;28;20032;-86
2021/03/26 12:04:13;;;;;;;9.90;5.72;;;;;;;;;;5007419;28;20104;-85
2021/03/26 12:07:02;;;;;;;9.55;5.72;;;;;;;;;;5022870;28;20504;-85
2021/03/26 12:09:55;;;;;;;10.90;6.20;;;;;;;;;;5025790;28;20025;-85
2021/03/26 12:12:48;;;;;;;9.80;6.07;;;;;;;;;;5007439;28;20107;-86
2021/03/26 12:15:37;;;;;;;12.82;6.70;;;;;;;;;;5010869;28;21516;-85
2021/03/26 12:18:23;;;;;;;9.93;6.63;;;;;;;;;;4998045;28;20444;-86
2021/03/26 12:21:31;;;;;;;11.40;7.55;;;;;;;;;;5009421;28;20029;-84
2021/03/26 12:24:17;;;;;;;10.43;7.25;;;;;;;;;;5012489;28;20037;-85
2021/03/26 12:27:06;;;;;;;11.43;7.97;;;;;;;;;;5019994;28;22883;-85
2021/03/26 12:29:54;;;;;;;12.38;7.80;;;;;;;;;;5008839;28;20035;-86
2021/03/26 12:32:39;;;;;;;13.65;7.63;;;;;;;;;;5009094;28;20025;-85
2021/03/26 12:35:44;;;;;;;9.88;6.10;;;;;;;;;;5021611;28;20068;-85
2021/03/26 12:38:49;;;;;;;9.27;5.88;;;;;;;;;;5001069;28;20136;-87
2021/03/26 12:41:34;;;;;;;9.80;5.80;;;;;;;;;;4991548;28;20029;-84
2021/03/26 12:44:25;;;;;;;11.50;6.25;;;;;;;;;;4992782;28;20037;-85
2021/03/26 12:47:26;;;;;;;9.23;5.50;;;;;;;;;;5011518;28;20706;-84
2021/03/26 12:50:14;;;;;;;10.30;5.90;;;;;;;;;;4999632;28;20022;-85
2021/03/26 12:53:12;;;;;;;10.35;5.45;;;;;;;;;;5007554;28;20412;-85
2021/03/26 12:56:09;;;;;;;12.00;5.70;;;;;;;;;;5012980;28;20490;-85
2021/03/26 12:59:00;;;;;;;10.05;5.15;;;;;;;;;;5008252;28;20494;-86
2021/03/26 13:01:49;;;;;;;10.90;5.68;;;;;;;;;;5005639;28;20044;-82
2021/03/26 13:04:40;;;;;;;8.57;5.63;;;;;;;;;;4996143;28;20025;-84
2021/03/26 13:07:28;;;;;;;10.95;5.10;;;;;;;;;;5010885;28;20064;-84
2021/03/26 13:10:38;;;;;;;13.00;7.80;;;;;;;;;;5022532;28;20112;-85
2021/03/26 13:13:31;;;;;;;14.77;7.18;;;;;;;;;;5005696;28;20488;-84
2021/03/26 13:16:16;;;;;;;13.07;5.43;;;;;;;;;;5004509;28;20040;-85
2021/03/26 13:19:05;;;;;;;9.35;4.68;;;;;;;;;;5021240;28;20479;-86
2021/03/26 13:21:54;;;;;;;;;;;;;;;;;;4998389;28;20025;-85
2021/03/26 13:24:57;;;;;;;19.27;12.25;;;;;;;;;;5002134;28;20560;-85
2021/03/26 13:27:49;;;;;;;10.23;4.55;;;;;;;;;;5006264;28;20736;-84
2021/03/26 13:30:37;;;;;;;6.93;4.28;;;;;;;;;;4998469;28;20064;-86
2021/03/26 13:33:35;;;;;;;11.35;4.60;;;;;;;;;;5003241;28;20476;-86
2021/03/26 13:36:30;;;;;;;8.20;4.67;;;;;;;;;;5008761;28;20818;-86
2021/03/26 13:39:15;;;;;;;11.35;5.13;;;;;;;;;;5010533;28;20805;-86
2021/03/26 13:42:19;;;;;;;10.52;4.97;;;;;;;;;;5006391;28;20127;-85
2021/03/26 13:45:23;;;;;;;7.45;4.70;;;;;;;;;;5002331;28;20116;-85
2021/03/26 13:48:11;;;;;;;8.18;3.97;;;;;;;;;;5011075;28;20049;-86
2021/03/26 13:50:59;;;;;;;9.45;4.00;;;;;;;;;;4997523;28;20030;-88
2021/03/26 13:54:14;;;;;;;9.32;4.05;;;;;;;;;;5009371;28;20450;-86
2021/03/26 13:57:05;;;;;;;7.75;4.07;;;;;;;;;;5008654;28;20661;-85
2021/03/26 14:00:07;;;;;;;9.38;3.20;;;;;;;;;;5016759;28;20042;-84
2021/03/26 14:03:25;;;;;;;8.80;3.60;;;;;;;;;;5008674;28;20320;-83
2021/03/26 14:06:26;;;;;;;3.88;3.22;;;;;;;;;;4999373;28;20121;-83
2021/03/26 14:09:23;;;;;;;5.50;3.20;;;;;;;;;;5017100;28;20017;-88
2021/03/26 14:12:09;;;;;;;6.22;3.30;;;;;;;;;;5026304;28;20538;-85
2021/03/26 14:15:01;;;;;;;7.70;3.10;;;;;;;;;;5012719;28;20052;-84
2021/03/26 14:18:05;;;;;;;7.38;4.00;;;;;;;;;;5009724;28;20033;-86
2021/03/26 14:21:02;;;;;;;6.22;3.15;;;;;;;;;;5012797;28;20041;-84
2021/03/26 14:23:49;;;;;;;7.85;2.67;;;;;;;;;;4994534;28;20017;-88
2021/03/26 14:26:43;;;;;;;6.00;2.22;;;;;;;;;;5004115;28;20574;-86
2021/03/26 14:29:35;;;;;;;6.63;2.33;;;;;;;;;;5007566;28;20044;-86
2021/03/26 14:32:25;;;;;;;7.25;2.55;;;;;;;;;;5008326;28;20514;-85
2021/03/26 14:35:18;;;;;;;6.78;2.88;;;;;;;;;;5010612;28;20025;-85
2021/03/26 14:38:22;;;;;;;4.93;2.35;;;;;;;;;;4991436;28;20396;-85
2021/03/26 14:41:16;;;;;;;5.80;2.67;;;;;;;;;;5020236;28;20022;-87
2021/03/26 14:44:04;;;;;;;7.18;2.92;;;;;;;;;;5007856;28;20039;-85
2021/03/26 14:46:52;;;;;;;4.53;2.87;;;;;;;;;;4991523;28;20022;-83
2021/03/26 14:49:41;;;;;;;11.30;3.42;;;;;;;;;;5006520;28;20087;-86
2021/03/26 14:52:38;;;;;;;6.50;3.38;;;;;;;;;;5006892;28;20475;-84
2021/03/26 14:55:26;;;;;;;8.68;3.30;;;;;;;;;;4992528;28;20033;-83
2021/03/26 14:58:29;;;;;;;8.40;3.30;;;;;;;;;;5020281;28;20030;-86
2021/03/26 15:01:34;;;;;;;5.40;2.67;;;;;;;;;;5012013;28;20028;-83
2021/03/26 15:04:26;;;;;;;6.00;2.97;;;;;;;;;;5022651;28;20025;-83
2021/03/26 15:07:11;;;;;;;7.50;3.15;;;;;;;;;;5014489;28;20037;-86
2021/03/26 15:10:15;;;;;;;5.15;2.80;;;;;;;;;;5023816;28;20052;-87
2021/03/26 15:13:03;;;;;;;7.18;3.33;;;;;;;;;;5006641;28;20033;-85
2021/03/26 15:16:04;;;;;;;6.35;3.17;;;;;;;;;;5009594;28;20017;-86
2021/03/26 15:19:05;;;;;;;5.18;3.00;;;;;;;;;;5023267;28;20025;-85
2021/03/26 15:22:00;;;;;;;5.95;3.00;;;;;;;;;;5014132;28;20064;-85
2021/03/26 15:25:05;;;;;;;5.22;3.05;;;;;;;;;;5012181;28;20025;-86
2021/03/26 15:27:56;;;;;;;5.93;2.90;;;;;;;;;;5012429;28;20052;-86
2021/03/26 15:31:03;;;;;;;7.32;3.35;;;;;;;;;;5007909;28;20396;-86
2021/03/26 15:33:53;;;;;;;5.25;2.40;;;;;;;;;;5024280;28;20093;-85
2021/03/26 15:36:43;;;;;;;8.48;3.00;;;;;;;;;;5014508;28;20025;-87
2021/03/26 15:39:31;;;;;;;6.13;2.72;;;;;;;;;;5011215;28;20021;-86
2021/03/26 15:42:23;;;;;;;5.38;2.50;;;;;;;;;;5026960;28;20388;-82
2021/03/26 15:45:11;;;;;;;4.95;2.67;;;;;;;;;;5026158;28;20071;-84
2021/03/26 15:48:01;;;;;;;8.63;2.85;;;;;;;;;;5016851;28;20435;-86
2021/03/26 15:50:51;;;;;;;4.63;2.80;;;;;;;;;;5016568;28;20088;-84
2021/03/26 15:53:44;;;;;;;7.10;2.88;;;;;;;;;;5015332;28;20050;-88
2021/03/26 15:56:46;;;;;;;8.05;3.58;;;;;;;;;;5007590;28;20021;-86
2021/03/26 15:59:32;;;;;;;6.00;2.70;;;;;;;;;;5029445;28;20877;-85
2021/03/26 16:02:26;;;;;;;5.03;2.67;;;;;;;;;;5015573;28;20025;-87
2021/03/26 16:05:12;;;;;;;10.23;5.25;;;;;;;;;;5002260;28;20096;-86
2021/03/26 16:08:28;;;;;;;6.80;3.03;;;;;;;;;;5013372;28;20017;-87
2021/03/26 16:11:29;;;;;;;7.90;3.28;;;;;;;;;;5023160;28;20139;-87
2021/03/26 16:14:32;;;;;;;7.13;2.95;;;;;;;;;;5012678;28;20034;-84
2021/03/26 16:17:31;;;;;;;5.95;3.03;;;;;;;;;;4986061;28;20029;-84
2021/03/26 16:20:16;;;;;;;6.50;3.45;;;;;;;;;;5011299;28;20030;-86
2021/03/26 16:23:20;;;;;;;8.68;3.22;;;;;;;;;;5018408;28;20025;-87
2021/03/26 16:26:24;;;;;;;6.40;3.17;;;;;;;;;;5006449;28;20021;-85
2021/03/26 16:29:12;;;;;;;7.13;2.90;;;;;;;;;;5012701;28;20029;-85
2021/03/26 16:31:57;;;;;;;5.97;3.65;;;;;;;;;;5007486;28;20036;-87
2021/03/26 16:35:12;;;;;;;8.15;3.42;;;;;;;;;;5011044;28;20582;-83
2021/03/26 16:38:09;;;;;;;7.05;2.92;;;;;;;;;;5014105;28;20037;-85
2021/03/26 16:41:10;;;;;;;7.18;3.22;;;;;;;;;;5021597;28;20009;-88
2021/03/26 16:44:14;;;;;;;5.03;3.42;;;;;;;;;;5040048;28;20029;-85
2021/03/26 16:47:03;;;;;;;9.65;3.65;;;;;;;;;;5012572;28;20104;-84
2021/03/26 16:49:54;;;;;;;7.55;3.33;;;;;;;;;;5022901;28;20075;-84
2021/03/26 16:52:46;;;;;;;6.28;3.53;;;;;;;;;;5018345;28;20026;-84
2021/03/26 16:55:35;;;;;;;5.57;2.88;;;;;;;;;;5023428;28;20021;-85
2021/03/26 16:58:20;;;;;;;;;;;;;;;;;;5006801;28;20044;-85
2021/03/26 17:01:15;;;;;;;8.35;3.67;;;;;;;;;;5008666;28;20495;-83
2021/03/26 17:04:12;;;;;;;7.05;3.65;;;;;;;;;;5005667;28;20056;-83
2021/03/26 17:07:14;;;;;;;6.47;3.60;;;;;;;;;;5006442;28;20038;-86
2021/03/26 17:10:18;;;;;;;11.20;3.60;;;;;;;;;;4995182;28;20029;-87
2021/03/26 17:13:18;;;;;;;8.35;3.80;;;;;;;;;;5004942;28;20030;-82